createdAt,value
2023-02-12T00:02:26.847Z,15.10
2023-02-12T00:04:57.693Z,14.67
2023-02-12T00:07:27.070Z,14.83
2023-02-12T00:09:56.542Z,16.63
2023-02-12T00:12:25.929Z,15.27
2023-02-12T00:14:55.332Z,16.93
2023-02-12T00:17:24.710Z,15.43
2023-02-12T00:19:54.089Z,14.53
2023-02-12T00:22:24.996Z,16.53
2023-02-12T00:24:54.792Z,15.90
2023-02-12T00:27:24.320Z,16.70
2023-02-12T00:29:53.746Z,18.50
2023-02-12T00:32:23.132Z,20.27
2023-02-12T00:34:52.590Z,22.47
2023-02-12T00:37:22.096Z,20.30
2023-02-12T00:39:52.871Z,21.33
2023-02-12T00:42:22.303Z,21.57
2023-02-12T00:44:54.003Z,27.00
2023-02-12T00:47:23.461Z,25.80
2023-02-12T00:49:52.879Z,19.60
2023-02-12T00:52:22.479Z,19.50
2023-02-12T00:54:54.140Z,20.53
2023-02-12T00:57:23.544Z,23.17
2023-02-12T00:59:52.980Z,19.20
2023-02-12T01:02:22.470Z,19.83
2023-02-12T01:04:51.948Z,24.23
2023-02-12T01:07:21.352Z,21.00
2023-02-12T01:09:53.140Z,19.17
2023-02-12T01:12:22.510Z,20.90
2023-02-12T01:14:52.590Z,22.63
2023-02-12T01:17:22.068Z,24.10
2023-02-12T01:19:52.004Z,21.43
2023-02-12T01:22:21.850Z,16.90
2023-02-12T01:24:54.004Z,19.77
2023-02-12T01:27:23.364Z,19.63
2023-02-12T01:29:52.916Z,17.23
2023-02-12T01:32:23.645Z,17.63
2023-02-12T01:34:53.287Z,16.20
2023-02-12T01:37:24.374Z,14.53
2023-02-12T01:39:56.537Z,13.83
2023-02-12T01:42:25.879Z,14.10
2023-02-12T01:45:56.579Z,16.30
2023-02-12T01:48:29.259Z,14.00
2023-02-12T01:50:59.397Z,14.60
2023-02-12T01:53:35.244Z,12.97
2023-02-12T01:56:07.502Z,11.73
2023-02-12T01:58:42.081Z,13.10
2023-02-12T02:01:20.150Z,13.03
2023-02-12T02:03:54.501Z,12.37
2023-02-12T02:06:30.791Z,13.37
2023-02-12T02:09:03.301Z,13.97
2023-02-12T02:11:53.924Z,14.20
2023-02-12T02:14:35.806Z,14.00
2023-02-12T02:17:43.577Z,14.40
2023-02-12T02:20:50.876Z,14.97
2023-02-12T02:23:41.543Z,16.47
2023-02-12T02:26:56.285Z,17.53
2023-02-12T02:30:00.940Z,19.23
2023-02-12T02:32:37.986Z,19.40
2023-02-12T02:35:16.279Z,21.17
2023-02-12T02:37:51.418Z,18.17
2023-02-12T02:40:25.662Z,16.27
2023-02-12T02:43:04.201Z,15.80
2023-02-12T02:45:39.309Z,16.87
2023-02-12T02:48:17.149Z,14.33
2023-02-12T02:50:52.086Z,13.87
2023-02-12T02:53:29.636Z,13.60
2023-02-12T02:56:04.157Z,14.87
2023-02-12T02:58:37.884Z,13.33
2023-02-12T03:01:12.621Z,14.03
2023-02-12T03:03:50.891Z,13.63
2023-02-12T03:06:28.116Z,17.17
2023-02-12T03:09:02.129Z,17.20
2023-02-12T03:11:35.317Z,19.40
2023-02-12T03:14:09.407Z,18.87
2023-02-12T03:16:44.190Z,18.00
2023-02-12T03:19:20.708Z,18.90
2023-02-12T03:21:56.227Z,18.47
2023-02-12T03:24:36.987Z,20.07
2023-02-12T03:27:10.924Z,18.37
2023-02-12T03:29:40.870Z,17.87
2023-02-12T03:32:25.375Z,16.50
2023-02-12T03:35:11.412Z,17.20
2023-02-12T03:37:47.921Z,17.53
2023-02-12T03:40:22.059Z,17.53
2023-02-12T03:42:59.670Z,18.37
2023-02-12T03:45:43.545Z,16.80
2023-02-12T03:48:21.232Z,14.57
2023-02-12T03:50:59.337Z,16.13
2023-02-12T03:53:30.506Z,16.70
2023-02-12T03:56:05.012Z,17.23
2023-02-12T03:58:36.903Z,17.20
2023-02-12T04:01:06.761Z,15.57
2023-02-12T04:03:39.886Z,15.87
2023-02-12T04:06:22.388Z,16.23
2023-02-12T04:08:51.977Z,14.80
2023-02-12T04:11:31.562Z,15.07
2023-02-12T04:14:22.341Z,13.73
2023-02-12T04:17:01.630Z,12.37
2023-02-12T04:19:39.951Z,14.77
2023-02-12T04:22:28.122Z,15.60
2023-02-12T04:25:09.753Z,16.63
2023-02-12T04:27:49.029Z,16.47
2023-02-12T04:30:25.907Z,19.03
2023-02-12T04:33:00.920Z,17.20
2023-02-12T04:35:35.912Z,18.40
2023-02-12T04:38:12.468Z,17.23
2023-02-12T04:40:43.179Z,17.13
2023-02-12T04:43:12.957Z,16.27
2023-02-12T04:45:42.549Z,14.50
2023-02-12T04:48:12.940Z,15.30
2023-02-12T04:50:46.448Z,16.23
2023-02-12T04:53:17.393Z,15.60
2023-02-12T04:55:47.819Z,17.00
2023-02-12T04:58:17.323Z,17.10
2023-02-12T05:00:46.829Z,16.90
2023-02-12T05:03:16.220Z,15.37
2023-02-12T05:05:45.659Z,15.30
2023-02-12T05:08:16.509Z,14.63
2023-02-12T05:10:45.959Z,15.33
2023-02-12T05:13:15.261Z,14.73
2023-02-12T05:15:44.752Z,13.40
2023-02-12T05:18:14.119Z,13.43
2023-02-12T05:20:43.541Z,12.60
2023-02-12T05:23:12.965Z,11.90
2023-02-12T05:25:43.751Z,13.90
2023-02-12T05:28:13.254Z,15.20
2023-02-12T05:30:42.659Z,15.70
2023-02-12T05:33:12.129Z,15.87
2023-02-12T05:35:41.517Z,15.20
2023-02-12T05:38:11.039Z,15.90
2023-02-12T05:40:43.202Z,15.37
2023-02-12T05:43:14.006Z,14.97
2023-02-12T05:45:45.148Z,16.07
2023-02-12T05:48:14.870Z,15.27
2023-02-12T05:50:44.244Z,15.37
2023-02-12T05:53:13.776Z,16.37
2023-02-12T05:55:43.154Z,17.07
2023-02-12T05:58:15.985Z,20.63
2023-02-12T06:00:45.537Z,18.23
2023-02-12T06:03:14.930Z,17.83
2023-02-12T06:05:44.312Z,17.03
2023-02-12T06:08:13.747Z,15.20
2023-02-12T06:10:43.099Z,16.30
2023-02-12T06:13:13.845Z,15.87
2023-02-12T06:15:43.206Z,13.20
2023-02-12T06:18:12.651Z,13.03
2023-02-12T06:20:41.955Z,12.17
2023-02-12T06:23:11.458Z,14.57
2023-02-12T06:25:40.847Z,15.83
2023-02-12T06:28:12.382Z,16.17
2023-02-12T06:30:44.380Z,17.33
2023-02-12T06:33:17.488Z,15.83
2023-02-12T06:35:52.434Z,14.73
2023-02-12T06:38:24.585Z,13.17
2023-02-12T06:40:55.387Z,12.50
2023-02-12T06:43:25.417Z,12.03
2023-02-12T06:46:11.935Z,11.40
2023-02-12T06:48:43.666Z,12.93
2023-02-12T06:51:23.739Z,14.47
2023-02-12T06:54:01.123Z,15.97
2023-02-12T06:56:34.336Z,15.77
2023-02-12T06:59:04.954Z,17.23
2023-02-12T07:01:38.598Z,16.33
2023-02-12T07:04:11.211Z,16.03
2023-02-12T07:06:42.953Z,15.47
2023-02-12T07:09:15.427Z,13.97
2023-02-12T07:11:44.909Z,12.60
2023-02-12T07:14:25.475Z,14.27
2023-02-12T07:17:05.619Z,15.40
2023-02-12T07:19:45.940Z,15.87
2023-02-12T07:22:21.468Z,13.60
2023-02-12T07:24:53.399Z,14.80
2023-02-12T07:27:22.881Z,13.30
2023-02-12T07:29:55.662Z,11.90
2023-02-12T07:32:26.481Z,11.03
2023-02-12T07:34:55.853Z,11.60
2023-02-12T07:37:25.380Z,13.27
2023-02-12T07:39:54.884Z,13.60
2023-02-12T07:42:24.336Z,11.10
2023-02-12T07:44:55.032Z,12.03
2023-02-12T07:47:25.851Z,11.97
2023-02-12T07:49:55.736Z,13.83
2023-02-12T07:52:25.223Z,14.83
2023-02-12T07:54:55.041Z,15.70
2023-02-12T07:57:24.501Z,15.53
2023-02-12T07:59:54.751Z,15.87
2023-02-12T08:02:26.188Z,15.60
2023-02-12T08:05:00.376Z,13.67
2023-02-12T08:07:32.752Z,14.90
2023-02-12T08:10:02.383Z,13.47
2023-02-12T08:12:31.979Z,12.63
2023-02-12T08:15:01.498Z,11.73
2023-02-12T08:17:32.360Z,12.47
2023-02-12T08:20:01.800Z,12.07
2023-02-12T08:22:31.370Z,12.07
2023-02-12T08:25:00.750Z,15.03
2023-02-12T08:27:30.194Z,14.50
2023-02-12T08:29:59.650Z,14.17
2023-02-12T08:32:29.567Z,13.47
2023-02-12T08:35:00.356Z,15.00
2023-02-12T08:37:29.847Z,17.13
2023-02-12T08:39:59.206Z,18.77
2023-02-12T08:42:28.702Z,16.33
2023-02-12T08:44:58.201Z,13.67
2023-02-12T08:47:29.738Z,15.90
2023-02-12T08:50:01.966Z,16.23
2023-02-12T08:52:31.419Z,18.93
2023-02-12T08:55:00.942Z,20.70
2023-02-12T08:57:30.345Z,18.43
2023-02-12T08:59:59.872Z,15.63
2023-02-12T09:02:29.397Z,14.40
2023-02-12T09:04:58.905Z,15.90
2023-02-12T09:07:29.681Z,17.27
2023-02-12T09:09:59.187Z,17.07
2023-02-12T09:12:28.832Z,18.37
2023-02-12T09:14:58.432Z,18.27
2023-02-12T09:17:28.778Z,18.73
2023-02-12T09:19:58.737Z,19.07
2023-02-12T09:22:29.637Z,17.63
2023-02-12T09:24:59.051Z,14.80
2023-02-12T09:27:31.230Z,14.30
2023-02-12T09:30:00.856Z,16.60
2023-02-12T09:32:31.023Z,16.27
2023-02-12T09:35:00.501Z,16.40
2023-02-12T09:37:31.422Z,19.33
2023-02-12T09:40:01.136Z,17.63
2023-02-12T09:42:58.994Z,18.67
2023-02-12T09:45:33.137Z,19.47
2023-02-12T09:48:16.725Z,16.50
2023-02-12T09:50:51.929Z,15.50
2023-02-12T09:53:27.956Z,14.17
2023-02-12T09:55:58.136Z,12.53
2023-02-12T09:58:35.783Z,12.80
2023-02-12T10:01:13.619Z,13.97
2023-02-12T10:03:43.947Z,13.97
2023-02-12T10:06:18.639Z,13.60
2023-02-12T10:09:07.484Z,13.50
2023-02-12T10:11:57.571Z,13.03
2023-02-12T10:15:14.210Z,13.07
2023-02-12T10:17:50.369Z,12.87
2023-02-12T10:20:52.338Z,13.63
2023-02-12T10:23:53.024Z,14.07
2023-02-12T10:26:28.803Z,12.37
2023-02-12T10:29:10.453Z,13.43
2023-02-12T10:31:45.734Z,12.40
2023-02-12T10:34:20.879Z,11.73
2023-02-12T10:36:53.148Z,15.07
2023-02-12T10:39:26.365Z,15.33
2023-02-12T10:42:05.439Z,15.63
2023-02-12T10:44:35.106Z,14.07
2023-02-12T10:47:04.689Z,14.37
2023-02-12T10:49:35.069Z,15.83
2023-02-12T10:52:14.502Z,18.50
2023-02-12T10:54:45.768Z,21.30
2023-02-12T10:57:23.768Z,21.57
2023-02-12T10:59:57.282Z,16.47
2023-02-12T11:02:30.300Z,17.47
2023-02-12T11:05:02.825Z,17.10
2023-02-12T11:07:49.509Z,16.93
2023-02-12T11:10:26.847Z,17.00
2023-02-12T11:12:58.485Z,17.73
2023-02-12T11:15:34.254Z,20.60
2023-02-12T11:18:07.653Z,18.47
2023-02-12T11:20:43.657Z,14.57
2023-02-12T11:23:27.974Z,16.77
2023-02-12T11:26:01.903Z,14.07
2023-02-12T11:28:36.074Z,12.93
2023-02-12T11:31:23.485Z,12.80
2023-02-12T11:34:15.380Z,12.57
2023-02-12T11:36:46.820Z,14.00
2023-02-12T11:39:22.751Z,12.27
2023-02-12T11:41:55.861Z,10.80
2023-02-12T11:44:31.041Z,13.03
2023-02-12T11:47:06.241Z,12.07
2023-02-12T11:49:44.158Z,9.77
2023-02-12T11:52:23.636Z,8.90
2023-02-12T11:54:57.019Z,7.73
2023-02-12T11:57:46.571Z,8.30
2023-02-12T12:00:22.402Z,6.07
2023-02-12T12:03:04.065Z,6.03
2023-02-12T12:05:39.840Z,6.47
2023-02-12T12:08:19.627Z,5.80
2023-02-12T12:10:55.263Z,6.60
2023-02-12T12:13:30.574Z,6.67
2023-02-12T12:16:27.980Z,6.87
2023-02-12T12:19:20.775Z,5.03
2023-02-12T12:22:01.052Z,4.33
2023-02-12T12:24:40.873Z,5.17
2023-02-12T12:27:46.120Z,5.80
2023-02-12T12:30:24.524Z,5.07
2023-02-12T12:33:01.058Z,6.23
2023-02-12T12:35:47.070Z,6.17
2023-02-12T12:38:29.636Z,7.10
2023-02-12T12:41:09.867Z,6.37
2023-02-12T12:43:52.696Z,4.53
2023-02-12T12:46:48.059Z,3.97
2023-02-12T12:49:56.477Z,4.63
2023-02-12T12:52:47.795Z,3.90
2023-02-12T12:55:35.993Z,4.57
2023-02-12T12:58:15.432Z,5.30
2023-02-12T13:01:16.508Z,4.13
2023-02-12T13:04:36.895Z,5.13
2023-02-12T13:07:25.172Z,3.53
2023-02-12T13:10:16.022Z,4.00
2023-02-12T13:13:23.433Z,3.97
2023-02-12T13:16:00.985Z,3.57
2023-02-12T13:18:45.043Z,4.40
2023-02-12T13:21:28.393Z,4.90
2023-02-12T13:24:04.411Z,4.20
2023-02-12T13:26:46.600Z,5.30
2023-02-12T13:29:21.804Z,3.67
2023-02-12T13:31:56.806Z,3.90
2023-02-12T13:34:30.846Z,4.13
2023-02-12T13:37:03.073Z,4.37
2023-02-12T13:39:37.734Z,4.30
2023-02-12T13:42:22.520Z,4.00
2023-02-12T13:45:02.221Z,4.67
2023-02-12T13:47:43.432Z,4.87
2023-02-12T13:50:42.204Z,5.03
2023-02-12T13:53:24.797Z,5.40
2023-02-12T13:56:07.350Z,5.20
2023-02-12T13:58:53.699Z,5.23
2023-02-12T14:01:47.682Z,5.07
2023-02-12T14:04:30.199Z,4.57
2023-02-12T14:07:06.807Z,5.30
2023-02-12T14:09:42.466Z,4.70
2023-02-12T14:12:16.222Z,4.87
2023-02-12T14:14:48.555Z,5.10
2023-02-12T14:17:54.342Z,4.70
2023-02-12T14:20:29.853Z,4.30
2023-02-12T14:23:23.210Z,4.20
2023-02-12T14:26:04.478Z,4.37
2023-02-12T14:28:56.506Z,4.17
2023-02-12T14:31:37.420Z,4.63
2023-02-12T14:34:40.575Z,4.30
2023-02-12T14:37:38.022Z,4.93
2023-02-12T14:40:43.637Z,4.33
2023-02-12T14:43:33.657Z,4.87
2023-02-12T14:46:46.993Z,5.13
2023-02-12T14:49:25.313Z,4.57
2023-02-12T14:52:00.414Z,5.13
2023-02-12T14:54:35.874Z,5.00
2023-02-12T14:57:10.062Z,4.93
2023-02-12T14:59:44.925Z,4.57
2023-02-12T15:02:21.974Z,4.83
2023-02-12T15:04:54.900Z,4.27
2023-02-12T15:07:31.977Z,5.13
2023-02-12T15:10:10.838Z,5.43
2023-02-12T15:12:45.480Z,5.47
2023-02-12T15:15:25.054Z,6.10
2023-02-12T15:18:00.517Z,6.57
2023-02-12T15:20:36.711Z,6.93
2023-02-12T15:23:37.908Z,6.43
2023-02-12T15:26:14.677Z,6.50
2023-02-12T15:28:44.794Z,7.27
2023-02-12T15:31:19.629Z,6.57
2023-02-12T15:33:52.371Z,8.60
2023-02-12T15:36:25.325Z,7.33
2023-02-12T15:38:57.811Z,6.77
2023-02-12T15:41:39.935Z,7.33
2023-02-12T15:44:28.616Z,7.93
2023-02-12T15:47:04.752Z,7.47
2023-02-12T15:49:37.400Z,7.20
2023-02-12T15:52:11.475Z,7.27
2023-02-12T15:54:41.274Z,8.27
2023-02-12T15:57:20.399Z,8.63
2023-02-12T15:59:52.832Z,8.23
2023-02-12T16:02:28.618Z,9.03
2023-02-12T16:04:59.860Z,8.47
2023-02-12T16:07:36.335Z,8.77
2023-02-12T16:10:07.916Z,10.50
2023-02-12T16:12:39.086Z,10.40
2023-02-12T16:15:24.240Z,11.23
2023-02-12T16:17:56.519Z,11.23
2023-02-12T16:20:30.768Z,10.57
2023-02-12T16:23:00.949Z,11.57
2023-02-12T16:25:33.670Z,9.77
2023-02-12T16:28:06.495Z,10.17
2023-02-12T16:30:38.822Z,12.73
2023-02-12T16:33:35.235Z,14.63
2023-02-12T16:36:07.833Z,14.27
2023-02-12T16:38:43.737Z,12.20
2023-02-12T16:41:26.244Z,11.27
2023-02-12T16:44:38.066Z,10.33
2023-02-12T16:47:07.664Z,12.47
2023-02-12T16:49:38.449Z,17.87
2023-02-12T16:52:29.868Z,27.40
2023-02-12T16:54:59.313Z,19.40
2023-02-12T16:57:28.707Z,14.33
2023-02-12T16:59:58.035Z,11.90
2023-02-12T17:02:27.561Z,11.13
2023-02-12T17:05:01.038Z,10.70
2023-02-12T17:07:31.234Z,14.37
2023-02-12T17:10:00.781Z,13.50
2023-02-12T17:12:30.292Z,12.33
2023-02-12T17:14:59.665Z,13.03
2023-02-12T17:17:29.097Z,13.47
2023-02-12T17:19:59.928Z,13.63
2023-02-12T17:22:29.515Z,13.87
2023-02-12T17:24:58.973Z,14.30
2023-02-12T17:27:28.381Z,12.07
2023-02-12T17:29:57.857Z,12.57
2023-02-12T17:32:27.286Z,11.90
2023-02-12T17:34:56.775Z,12.33
2023-02-12T17:37:27.592Z,11.23
2023-02-12T17:39:57.196Z,10.67
2023-02-12T17:42:26.658Z,10.83
2023-02-12T17:44:56.327Z,10.97
2023-02-12T17:47:25.842Z,11.27
2023-02-12T17:49:55.252Z,12.47
2023-02-12T17:52:26.286Z,11.83
2023-02-12T17:54:56.380Z,12.73
2023-02-12T17:57:26.374Z,12.87
2023-02-12T17:59:55.732Z,11.50
2023-02-12T18:02:25.212Z,12.27
2023-02-12T18:04:54.529Z,9.40
2023-02-12T18:07:24.568Z,9.10
2023-02-12T18:09:55.772Z,8.03
2023-02-12T18:12:25.219Z,6.50
2023-02-12T18:14:59.140Z,6.90
2023-02-12T18:17:29.188Z,6.47
2023-02-12T18:19:58.991Z,6.53
2023-02-12T18:22:28.428Z,6.00
2023-02-12T18:24:59.197Z,6.93
2023-02-12T18:27:28.724Z,6.10
2023-02-12T18:29:58.181Z,5.17
2023-02-12T18:32:27.686Z,4.90
2023-02-12T18:34:57.072Z,4.70
2023-02-12T18:37:26.592Z,4.90
2023-02-12T18:39:56.088Z,5.00
2023-02-12T18:42:28.523Z,4.87
2023-02-12T18:44:57.892Z,4.70
2023-02-12T18:47:27.418Z,5.23
2023-02-12T18:49:58.044Z,4.30
2023-02-12T18:52:27.664Z,4.53
2023-02-12T18:54:57.086Z,4.47
2023-02-12T18:57:28.120Z,4.90
2023-02-12T18:59:57.555Z,5.57
2023-02-12T19:02:27.165Z,5.70
2023-02-12T19:04:56.660Z,5.13
2023-02-12T19:07:27.520Z,5.53
2023-02-12T19:09:57.047Z,5.30
2023-02-12T19:12:28.042Z,5.33
2023-02-12T19:14:57.403Z,5.10
2023-02-12T19:17:27.004Z,5.17
2023-02-12T19:19:56.391Z,5.53
2023-02-12T19:22:25.905Z,4.93
2023-02-12T19:24:55.352Z,4.67
2023-02-12T19:27:24.891Z,4.67
2023-02-12T19:29:55.532Z,4.53
2023-02-12T19:32:24.906Z,5.23
2023-02-12T19:34:54.537Z,5.93
2023-02-12T19:37:24.424Z,5.23
2023-02-12T19:39:53.873Z,5.63
2023-02-12T19:42:23.319Z,5.20
2023-02-12T19:44:53.982Z,5.00
2023-02-12T19:47:23.496Z,4.27
2023-02-12T19:49:52.832Z,4.90
2023-02-12T19:52:22.277Z,5.07
2023-02-12T19:54:51.962Z,5.37
2023-02-12T19:57:20.984Z,5.37
2023-02-12T19:59:50.461Z,5.57
2023-02-12T20:02:20.863Z,4.27
2023-02-12T20:04:49.830Z,4.13
2023-02-12T20:07:18.806Z,4.40
2023-02-12T20:09:51.235Z,3.83
2023-02-12T20:12:20.397Z,4.60
2023-02-12T20:14:49.378Z,4.97
2023-02-12T20:17:20.259Z,4.97
2023-02-12T20:19:50.646Z,4.97
2023-02-12T20:22:19.604Z,4.87
2023-02-12T20:24:48.616Z,4.13
2023-02-12T20:27:17.716Z,4.97
2023-02-12T20:29:46.704Z,4.70
2023-02-12T20:32:15.928Z,6.37
2023-02-12T20:34:50.864Z,8.00
2023-02-12T20:37:21.640Z,8.63
2023-02-12T20:39:50.674Z,10.83
2023-02-12T20:42:19.691Z,10.40
2023-02-12T20:44:48.689Z,8.97
2023-02-12T20:47:17.713Z,10.13
2023-02-12T20:49:48.942Z,8.20
2023-02-12T20:52:18.038Z,7.53
2023-02-12T20:54:51.779Z,8.13
2023-02-12T20:57:23.066Z,9.90
2023-02-12T20:59:52.039Z,10.03
2023-02-12T21:02:21.029Z,8.50
2023-02-12T21:04:51.905Z,9.00
2023-02-12T21:07:20.943Z,6.93
2023-02-12T21:09:51.451Z,8.13
2023-02-12T21:12:20.484Z,8.20
2023-02-12T21:14:51.787Z,7.23
2023-02-12T21:17:22.015Z,7.43
2023-02-12T21:19:54.001Z,8.93
2023-02-12T21:22:24.250Z,7.37
2023-02-12T21:24:54.647Z,8.13
2023-02-12T21:27:23.652Z,10.20
2023-02-12T21:29:52.711Z,11.57
2023-02-12T21:32:21.830Z,11.67
2023-02-12T21:34:50.917Z,8.73
2023-02-12T21:37:19.973Z,10.10
2023-02-12T21:39:49.145Z,10.33
2023-02-12T21:42:22.449Z,9.87
2023-02-12T21:44:51.657Z,11.47
2023-02-12T21:47:20.631Z,9.70
2023-02-12T21:49:51.997Z,11.10
2023-02-12T21:52:21.086Z,11.07
2023-02-12T21:54:50.101Z,9.30
2023-02-12T21:57:21.784Z,8.60
2023-02-12T21:59:52.195Z,9.60
2023-02-12T22:02:21.178Z,10.77
2023-02-12T22:04:50.263Z,9.73
2023-02-12T22:07:22.159Z,8.30
2023-02-12T22:09:51.133Z,8.50
2023-02-12T22:12:20.074Z,8.03
2023-02-12T22:14:49.156Z,8.07
2023-02-12T22:17:19.493Z,7.73
2023-02-12T22:19:48.497Z,8.17
2023-02-12T22:22:17.532Z,8.87
2023-02-12T22:24:46.811Z,8.57
2023-02-12T22:27:15.821Z,8.53
2023-02-12T22:29:44.821Z,8.03
2023-02-12T22:32:16.589Z,9.50
2023-02-12T22:34:47.036Z,9.23
2023-02-12T22:37:19.066Z,11.23
2023-02-12T22:39:48.144Z,10.00
2023-02-12T22:42:17.152Z,11.27
2023-02-12T22:44:49.150Z,9.57
2023-02-12T22:47:18.132Z,7.90
2023-02-12T22:49:48.533Z,9.80
2023-02-12T22:52:17.751Z,11.20
2023-02-12T22:54:46.871Z,10.57
2023-02-12T22:57:17.815Z,10.03
2023-02-12T22:59:50.109Z,11.83
2023-02-12T23:02:19.094Z,9.87
2023-02-12T23:04:49.518Z,12.17
2023-02-12T23:07:18.481Z,11.70
2023-02-12T23:09:47.531Z,12.87
2023-02-12T23:12:16.496Z,11.60
2023-02-12T23:14:45.538Z,9.17
2023-02-12T23:17:17.543Z,8.37
2023-02-12T23:19:46.549Z,9.37
2023-02-12T23:22:16.862Z,9.10
2023-02-12T23:24:46.127Z,11.00
2023-02-12T23:27:15.386Z,11.97
2023-02-12T23:29:44.453Z,10.93
2023-02-12T23:32:13.496Z,8.07
2023-02-12T23:34:42.525Z,9.40
2023-02-12T23:37:13.766Z,8.37
2023-02-12T23:39:46.871Z,8.27
2023-02-12T23:42:15.906Z,7.57
2023-02-12T23:44:44.996Z,8.37
2023-02-12T23:47:14.048Z,7.53
2023-02-12T23:49:43.082Z,8.93
2023-02-12T23:52:12.088Z,9.97
2023-02-12T23:54:43.786Z,9.63
2023-02-12T23:57:14.140Z,8.63
2023-02-12T23:59:43.295Z,7.10
